createdAt,value
2018-04-10T00:00:39.750Z,20.50
2018-04-10T00:03:06.517Z,20.10
2018-04-10T00:05:33.452Z,20.70
2018-04-10T00:08:00.498Z,20.60
2018-04-10T00:10:27.552Z,20.70
2018-04-10T00:12:54.451Z,20.10
2018-04-10T00:15:22.073Z,20.70
2018-04-10T00:17:48.754Z,20.60
2018-04-10T00:20:16.274Z,20.60
2018-04-10T00:22:43.228Z,20.10
2018-04-10T00:25:10.079Z,20.30
2018-04-10T00:27:36.842Z,20.60
2018-04-10T00:30:03.699Z,20.30
2018-04-10T00:32:30.618Z,20.00
2018-04-10T00:34:57.405Z,20.00
2018-04-10T00:37:25.026Z,20.70
2018-04-10T00:39:51.852Z,20.60
2018-04-10T00:42:18.631Z,20.30
2018-04-10T00:44:45.397Z,20.00
2018-04-10T00:47:12.216Z,20.70
2018-04-10T00:49:38.916Z,20.30
2018-04-10T00:52:05.917Z,20.20
2018-04-10T00:54:32.888Z,19.90
2018-04-10T00:56:59.671Z,20.10
2018-04-10T00:59:26.527Z,20.10
2018-04-10T01:01:53.516Z,20.00
2018-04-10T01:04:20.564Z,20.60
2018-04-10T01:06:47.506Z,20.60
2018-04-10T01:09:14.489Z,20.00
2018-04-10T01:11:41.311Z,20.30
2018-04-10T01:14:08.279Z,20.00
2018-04-10T01:16:35.192Z,20.20
2018-04-10T01:19:02.169Z,20.20
2018-04-10T01:21:28.979Z,20.10
2018-04-10T01:23:55.903Z,20.10
2018-04-10T01:26:23.454Z,20.10
2018-04-10T01:28:50.206Z,20.00
2018-04-10T01:31:17.845Z,19.90
2018-04-10T01:33:44.711Z,19.90
2018-04-10T01:36:11.574Z,20.00
2018-04-10T01:38:39.306Z,20.20
2018-04-10T01:41:06.078Z,20.00
2018-04-10T01:43:32.946Z,20.20
2018-04-10T01:46:00.562Z,20.20
2018-04-10T01:48:27.509Z,20.00
2018-04-10T01:50:54.378Z,20.20
2018-04-10T01:53:21.251Z,19.90
2018-04-10T01:55:48.781Z,20.00
2018-04-10T01:58:15.658Z,20.00
2018-04-10T02:00:42.428Z,20.00
2018-04-10T02:03:09.218Z,20.10
2018-04-10T02:05:36.073Z,20.00
2018-04-10T02:08:03.007Z,19.90
2018-04-10T02:10:29.864Z,20.10
2018-04-10T02:12:56.740Z,19.90
2018-04-10T02:15:23.565Z,19.90
2018-04-10T02:17:50.439Z,20.00
2018-04-10T02:20:17.962Z,20.10
2018-04-10T02:22:44.660Z,20.00
2018-04-10T02:25:12.226Z,19.90
2018-04-10T02:27:39.840Z,19.90
2018-04-10T02:30:06.720Z,19.90
2018-04-10T02:32:33.579Z,19.90
2018-04-10T02:35:01.193Z,19.80
2018-04-10T02:37:28.058Z,20.20
2018-04-10T02:39:54.866Z,19.90
2018-04-10T02:42:21.681Z,19.90
2018-04-10T02:44:49.317Z,19.90
2018-04-10T02:47:16.087Z,20.00
2018-04-10T02:49:43.080Z,19.90
2018-04-10T02:52:09.785Z,20.10
2018-04-10T02:54:36.609Z,20.10
2018-04-10T02:57:03.502Z,19.90
2018-04-10T02:59:31.010Z,19.90
2018-04-10T03:01:57.874Z,19.90
2018-04-10T03:04:24.719Z,19.90
2018-04-10T03:06:51.392Z,19.90
2018-04-10T03:09:18.210Z,20.00
2018-04-10T03:11:45.156Z,20.20
2018-04-10T03:14:12.003Z,20.10
2018-04-10T03:16:38.959Z,20.00
2018-04-10T03:19:05.839Z,19.90
2018-04-10T03:21:32.650Z,19.90
2018-04-10T03:23:59.597Z,19.90
2018-04-10T03:26:26.367Z,20.10
2018-04-10T03:28:53.203Z,19.90
2018-04-10T03:31:20.040Z,19.90
2018-04-10T03:33:46.782Z,19.90
2018-04-10T03:36:13.755Z,19.90
2018-04-10T03:38:40.508Z,19.90
2018-04-10T03:41:07.432Z,19.90
2018-04-10T03:43:34.278Z,20.10
2018-04-10T03:46:01.067Z,20.00
2018-04-10T03:48:28.696Z,20.10
2018-04-10T03:50:55.534Z,19.80
2018-04-10T03:53:22.462Z,19.90
2018-04-10T03:55:49.283Z,20.10
2018-04-10T03:58:16.289Z,19.90
2018-04-10T04:00:43.342Z,19.90
2018-04-10T04:03:10.185Z,19.90
2018-04-10T04:05:37.033Z,20.00
2018-04-10T04:08:03.805Z,20.20
2018-04-10T04:10:30.760Z,20.10
2018-04-10T04:12:57.682Z,20.10
2018-04-10T04:15:24.739Z,20.70
2018-04-10T04:17:51.436Z,21.40
2018-04-10T04:20:37.881Z,22.00
2018-04-10T04:23:04.667Z,22.70
2018-04-10T04:25:32.286Z,23.40
2018-04-10T04:27:59.244Z,23.60
2018-04-10T04:30:26.088Z,23.80
2018-04-10T04:32:52.871Z,23.90
2018-04-10T04:35:20.402Z,23.70
2018-04-10T04:37:47.181Z,23.70
2018-04-10T04:40:14.011Z,23.80
2018-04-10T04:42:40.835Z,23.90
2018-04-10T04:45:07.590Z,23.70
2018-04-10T04:47:34.363Z,23.80
2018-04-10T04:50:01.179Z,23.70
2018-04-10T04:52:28.028Z,23.80
2018-04-10T04:54:54.987Z,23.60
2018-04-10T04:57:21.671Z,23.50
2018-04-10T04:59:49.405Z,23.50
2018-04-10T05:02:16.238Z,23.70
2018-04-10T05:04:43.212Z,23.70
2018-04-10T05:07:10.046Z,23.50
2018-04-10T05:09:36.981Z,23.00
2018-04-10T05:12:03.841Z,23.40
2018-04-10T05:14:30.705Z,23.20
2018-04-10T05:16:57.832Z,23.00
2018-04-10T05:19:24.675Z,22.80
2018-04-10T05:21:51.454Z,22.70
2018-04-10T05:24:18.280Z,22.80
2018-04-10T05:26:45.270Z,22.90
2018-04-10T05:29:12.815Z,22.70
2018-04-10T05:31:39.679Z,22.40
2018-04-10T05:34:06.705Z,22.70
2018-04-10T05:36:33.558Z,22.80
2018-04-10T05:39:00.331Z,22.60
2018-04-10T05:41:27.953Z,22.60
2018-04-10T05:43:54.847Z,22.70
2018-04-10T05:46:22.480Z,22.70
2018-04-10T05:48:49.280Z,22.20
2018-04-10T05:51:16.272Z,22.60
2018-04-10T05:53:43.110Z,22.60
2018-04-10T05:56:10.072Z,22.10
2018-04-10T05:58:36.915Z,22.70
2018-04-10T06:01:03.866Z,22.20
2018-04-10T06:03:30.712Z,22.70
2018-04-10T06:05:57.390Z,22.60
2018-04-10T06:08:24.313Z,22.10
2018-04-10T06:10:51.162Z,22.10
2018-04-10T06:13:18.024Z,22.10
2018-04-10T06:15:44.853Z,22.00
2018-04-10T06:18:11.819Z,22.20
2018-04-10T06:20:38.756Z,22.10
2018-04-10T06:23:05.495Z,21.90
2018-04-10T06:25:32.368Z,22.00
2018-04-10T06:27:59.399Z,22.00
2018-04-10T06:30:26.252Z,22.00
2018-04-10T06:32:53.199Z,22.10
2018-04-10T06:35:20.061Z,22.10
2018-04-10T06:37:47.101Z,22.10
2018-04-10T06:40:13.886Z,22.00
2018-04-10T06:42:41.442Z,22.00
2018-04-10T06:45:08.469Z,22.00
2018-04-10T06:47:35.271Z,21.90
2018-04-10T06:50:02.880Z,22.00
2018-04-10T06:52:29.748Z,21.90
2018-04-10T06:54:56.581Z,21.90
2018-04-10T06:57:23.569Z,21.90
2018-04-10T06:59:51.188Z,22.00
2018-04-10T07:02:18.158Z,22.00
2018-04-10T07:04:45.025Z,21.90
2018-04-10T07:07:12.606Z,21.90
2018-04-10T07:09:40.226Z,22.00
2018-04-10T07:12:07.099Z,22.00
2018-04-10T07:14:33.940Z,22.00
2018-04-10T07:17:00.871Z,22.00
2018-04-10T07:19:27.750Z,22.00
2018-04-10T07:21:55.298Z,21.90
2018-04-10T07:24:22.233Z,21.90
2018-04-10T07:26:49.695Z,22.00
2018-04-10T07:29:16.535Z,21.60
2018-04-10T07:31:43.488Z,22.00
2018-04-10T07:34:10.228Z,22.00
2018-04-10T07:36:37.022Z,22.00
2018-04-10T07:39:05.678Z,21.40
2018-04-10T07:41:32.527Z,21.50
2018-04-10T07:43:59.574Z,21.90
2018-04-10T07:46:26.313Z,21.90
2018-04-10T07:48:53.161Z,21.90
2018-04-10T07:51:20.053Z,21.80
2018-04-10T07:53:46.960Z,21.90
2018-04-10T07:56:13.767Z,21.50
2018-04-10T07:58:40.767Z,21.40
2018-04-10T08:01:08.143Z,21.30
2018-04-10T08:03:35.074Z,21.30
2018-04-10T08:06:02.028Z,21.30
2018-04-10T08:08:28.903Z,21.40
2018-04-10T08:10:55.749Z,21.30
2018-04-10T08:13:22.637Z,21.40
2018-04-10T08:15:50.904Z,21.50
2018-04-10T08:18:18.622Z,21.50
2018-04-10T08:20:45.472Z,21.50
2018-04-10T08:23:12.303Z,21.40
2018-04-10T08:25:39.180Z,21.50
2018-04-10T08:28:06.048Z,21.30
2018-04-10T08:30:33.672Z,21.50
2018-04-10T08:33:00.673Z,21.40
2018-04-10T08:35:28.315Z,21.40
2018-04-10T08:37:55.191Z,21.30
2018-04-10T08:40:22.911Z,21.50
2018-04-10T08:42:49.597Z,21.50
2018-04-10T08:45:17.203Z,21.40
2018-04-10T08:47:43.891Z,21.30
2018-04-10T08:50:10.954Z,21.30
2018-04-10T08:52:38.583Z,21.40
2018-04-10T08:55:05.431Z,21.30
2018-04-10T08:57:32.222Z,21.30
2018-04-10T08:59:59.945Z,21.50
2018-04-10T09:02:26.803Z,21.40
2018-04-10T09:04:53.747Z,21.60
2018-04-10T09:07:20.645Z,21.30
2018-04-10T09:09:47.543Z,21.30
2018-04-10T09:12:14.393Z,21.50
2018-04-10T09:14:41.139Z,21.40
2018-04-10T09:17:07.901Z,21.30
2018-04-10T09:19:34.823Z,21.30
2018-04-10T09:22:01.686Z,21.30
2018-04-10T09:24:28.655Z,21.40
2018-04-10T09:26:55.575Z,21.50
2018-04-10T09:29:22.418Z,21.50
2018-04-10T09:31:49.201Z,21.40
2018-04-10T09:34:16.027Z,21.40
2018-04-10T09:36:42.871Z,21.40
2018-04-10T09:39:09.718Z,21.50
2018-04-10T09:41:36.490Z,21.40
2018-04-10T09:44:03.372Z,21.40
2018-04-10T09:46:30.263Z,21.50
2018-04-10T09:48:57.102Z,21.40
2018-04-10T09:51:23.979Z,21.50
2018-04-10T09:53:50.803Z,21.40
2018-04-10T09:56:17.651Z,21.40
2018-04-10T09:58:44.519Z,21.50
2018-04-10T10:01:11.553Z,21.40
2018-04-10T10:03:38.320Z,21.50
2018-04-10T10:06:05.077Z,21.40
2018-04-10T10:08:31.818Z,21.40
2018-04-10T10:10:58.484Z,21.40
2018-04-10T10:13:26.108Z,21.50
2018-04-10T10:15:52.955Z,21.50
2018-04-10T10:18:19.835Z,21.40
2018-04-10T10:20:47.354Z,21.50
2018-04-10T10:23:14.017Z,21.40
2018-04-10T10:25:40.845Z,21.40
2018-04-10T10:28:07.698Z,21.50
2018-04-10T10:30:34.486Z,21.40
2018-04-10T10:33:02.226Z,21.50
2018-04-10T10:35:29.163Z,21.50
2018-04-10T10:37:56.016Z,21.40
2018-04-10T10:40:22.759Z,21.40
2018-04-10T10:42:49.529Z,21.50
2018-04-10T10:45:17.015Z,21.50
2018-04-10T10:47:44.458Z,21.50
2018-04-10T10:50:11.288Z,21.50
2018-04-10T10:52:38.011Z,21.40
2018-04-10T10:55:04.803Z,21.40
2018-04-10T10:57:31.635Z,21.40
2018-04-10T10:59:58.569Z,21.50
2018-04-10T11:02:25.350Z,21.40
2018-04-10T11:04:52.987Z,21.40
2018-04-10T11:07:19.831Z,21.30
2018-04-10T11:09:46.803Z,21.40
2018-04-10T11:12:13.634Z,21.50
2018-04-10T11:14:40.479Z,21.40
2018-04-10T11:17:07.283Z,21.50
2018-04-10T11:19:34.066Z,21.40
2018-04-10T11:22:00.910Z,21.40
2018-04-10T11:24:27.682Z,21.40
2018-04-10T11:26:54.435Z,21.40
2018-04-10T11:29:21.279Z,21.40
2018-04-10T11:31:48.108Z,21.50
2018-04-10T11:34:14.954Z,21.50
2018-04-10T11:36:41.748Z,21.50
2018-04-10T11:39:09.611Z,21.50
2018-04-10T11:41:36.411Z,21.50
2018-04-10T11:44:03.288Z,21.50
2018-04-10T11:46:30.420Z,21.40
2018-04-10T11:48:57.163Z,21.40
2018-04-10T11:51:24.111Z,21.40
2018-04-10T11:53:50.907Z,21.40
2018-04-10T11:56:18.535Z,21.40
2018-04-10T11:58:45.383Z,21.40
2018-04-10T12:01:12.142Z,21.40
2018-04-10T12:03:38.971Z,21.50
2018-04-10T12:06:05.755Z,21.40
2018-04-10T12:08:33.382Z,21.40
2018-04-10T12:11:00.326Z,21.40
2018-04-10T12:13:27.993Z,21.30
2018-04-10T12:15:55.363Z,21.30
2018-04-10T12:18:22.284Z,21.40
2018-04-10T12:20:49.158Z,21.50
2018-04-10T12:23:16.219Z,21.40
2018-04-10T12:25:43.165Z,21.50
2018-04-10T12:28:10.828Z,21.40
2018-04-10T12:30:37.694Z,21.40
2018-04-10T12:33:04.637Z,21.40
2018-04-10T12:35:31.395Z,21.40
2018-04-10T12:37:58.396Z,21.50
2018-04-10T12:40:25.086Z,21.50
2018-04-10T12:42:51.850Z,21.40
2018-04-10T12:45:18.762Z,21.30
2018-04-10T12:47:45.542Z,21.30
2018-04-10T12:50:12.283Z,21.50
2018-04-10T12:52:39.214Z,21.50
2018-04-10T12:55:06.913Z,21.50
2018-04-10T12:57:34.534Z,21.50
2018-04-10T13:00:01.492Z,21.40
2018-04-10T13:02:28.393Z,21.40
2018-04-10T13:04:55.141Z,21.40
2018-04-10T13:07:21.896Z,21.40
2018-04-10T13:09:48.885Z,21.40
2018-04-10T13:12:15.839Z,21.50
2018-04-10T13:14:42.571Z,21.40
2018-04-10T13:17:10.118Z,21.50
2018-04-10T13:19:36.993Z,21.40
2018-04-10T13:22:03.801Z,21.40
2018-04-10T13:24:30.517Z,21.50
2018-04-10T13:26:58.248Z,21.50
2018-04-10T13:29:25.095Z,21.40
2018-04-10T13:31:52.046Z,21.30
2018-04-10T13:34:19.103Z,21.40
2018-04-10T13:36:45.951Z,21.90
2018-04-10T13:39:12.941Z,21.50
2018-04-10T13:41:40.531Z,21.90
2018-04-10T13:44:07.413Z,22.00
2018-04-10T13:46:34.190Z,21.80
2018-04-10T13:49:01.217Z,21.90
2018-04-10T13:51:28.166Z,21.50
2018-04-10T13:53:55.019Z,21.40
2018-04-10T13:56:21.779Z,21.60
2018-04-10T13:58:48.826Z,21.60
2018-04-10T14:01:15.766Z,21.50
2018-04-10T14:03:42.669Z,21.50
2018-04-10T14:06:09.559Z,21.90
2018-04-10T14:08:36.622Z,21.50
2018-04-10T14:11:03.469Z,21.50
2018-04-10T14:13:30.405Z,21.50
2018-04-10T14:15:57.219Z,21.40
2018-04-10T14:18:24.349Z,21.30
2018-04-10T14:20:51.934Z,21.30
2018-04-10T14:23:18.760Z,21.50
2018-04-10T14:25:46.401Z,22.00
2018-04-10T14:28:13.435Z,21.90
2018-04-10T14:30:40.411Z,22.00
2018-04-10T14:33:07.175Z,22.00
2018-04-10T14:35:33.951Z,21.70
2018-04-10T14:38:00.665Z,21.40
2018-04-10T14:40:28.397Z,22.00
2018-04-10T14:42:55.243Z,21.90
2018-04-10T14:45:22.099Z,22.00
2018-04-10T14:47:48.868Z,22.00
2018-04-10T14:50:15.583Z,22.00
2018-04-10T14:52:42.485Z,21.90
2018-04-10T14:55:09.966Z,22.00
2018-04-10T14:57:36.814Z,22.00
2018-04-10T15:00:03.551Z,22.10
2018-04-10T15:02:30.386Z,22.00
2018-04-10T15:04:57.985Z,22.10
2018-04-10T15:07:24.959Z,22.10
2018-04-10T15:09:51.815Z,22.10
2018-04-10T15:12:18.662Z,22.20
2018-04-10T15:14:45.600Z,22.20
2018-04-10T15:17:12.461Z,22.20
2018-04-10T15:19:39.297Z,22.20
2018-04-10T15:22:06.256Z,22.10
2018-04-10T15:24:33.201Z,22.10
2018-04-10T15:26:59.973Z,22.20
2018-04-10T15:29:26.994Z,22.20
2018-04-10T15:31:53.682Z,22.00
2018-04-10T15:34:21.236Z,22.60
2018-04-10T15:36:48.905Z,22.20
2018-04-10T15:39:15.923Z,22.10
2018-04-10T15:41:42.752Z,22.10
2018-04-10T15:44:09.438Z,22.00
2018-04-10T15:46:36.369Z,22.00
2018-04-10T15:49:03.212Z,22.00
2018-04-10T15:51:29.995Z,22.10
2018-04-10T15:53:57.616Z,21.80
2018-04-10T15:56:24.577Z,22.00
2018-04-10T15:58:51.354Z,22.10
2018-04-10T16:01:18.171Z,22.10
2018-04-10T16:03:45.127Z,21.80
2018-04-10T16:06:11.963Z,22.00
2018-04-10T16:08:38.956Z,22.00
2018-04-10T16:11:05.784Z,22.10
2018-04-10T16:13:32.814Z,22.00
2018-04-10T16:15:59.595Z,22.10
2018-04-10T16:18:26.451Z,22.20
2018-04-10T16:20:54.263Z,22.70
2018-04-10T16:23:21.054Z,22.80
2018-04-10T16:25:48.102Z,22.90
2018-04-10T16:28:14.874Z,22.90
2018-04-10T16:30:42.496Z,23.50
2018-04-10T16:33:09.266Z,23.50
2018-04-10T16:35:36.105Z,23.60
2018-04-10T16:38:03.040Z,23.00
2018-04-10T16:40:29.995Z,23.50
2018-04-10T16:42:56.782Z,23.50
2018-04-10T16:45:24.419Z,23.40
2018-04-10T16:47:51.455Z,23.00
2018-04-10T16:50:18.131Z,22.90
2018-04-10T16:52:45.170Z,22.90
2018-04-10T16:55:12.109Z,22.80
2018-04-10T16:57:38.963Z,22.90
2018-04-10T17:00:05.734Z,22.90
2018-04-10T17:02:33.368Z,22.80
2018-04-10T17:05:00.365Z,22.80
2018-04-10T17:07:28.078Z,22.80
2018-04-10T17:09:55.039Z,22.80
2018-04-10T17:12:21.990Z,23.00
2018-04-10T17:14:48.944Z,23.30
2018-04-10T17:17:15.784Z,23.00
2018-04-10T17:19:42.634Z,22.90
2018-04-10T17:22:09.480Z,23.40
2018-04-10T17:24:36.418Z,23.40
2018-04-10T17:27:03.363Z,22.90
2018-04-10T17:29:30.296Z,22.90
2018-04-10T17:31:57.072Z,22.90
2018-04-10T17:34:23.758Z,22.90
2018-04-10T17:36:51.485Z,22.90
2018-04-10T17:39:18.469Z,22.90
2018-04-10T17:41:45.948Z,22.90
2018-04-10T17:44:13.769Z,22.80
2018-04-10T17:46:40.688Z,22.90
2018-04-10T17:49:07.588Z,22.70
2018-04-10T17:51:34.475Z,22.80
2018-04-10T17:54:01.328Z,22.80
2018-04-10T17:56:28.321Z,22.80
2018-04-10T17:58:55.267Z,22.80
2018-04-10T18:01:22.217Z,22.70
2018-04-10T18:03:49.000Z,22.70
2018-04-10T18:06:16.602Z,22.70
2018-04-10T18:08:43.485Z,22.80
2018-04-10T18:11:10.272Z,22.80
2018-04-10T18:13:37.982Z,22.70
2018-04-10T18:16:04.788Z,22.70
2018-04-10T18:18:32.438Z,22.80
2018-04-10T18:21:00.092Z,22.70
2018-04-10T18:23:27.345Z,22.80
2018-04-10T18:25:54.386Z,22.70
2018-04-10T18:28:21.155Z,22.40
2018-04-10T18:30:47.968Z,22.80
2018-04-10T18:33:14.768Z,22.80
2018-04-10T18:35:42.401Z,22.70
2018-04-10T18:38:09.282Z,22.70
2018-04-10T18:40:36.926Z,22.80
2018-04-10T18:43:03.836Z,22.80
2018-04-10T18:45:30.721Z,22.70
2018-04-10T18:47:57.666Z,22.30
2018-04-10T18:50:24.518Z,22.60
2018-04-10T18:52:51.457Z,22.20
2018-04-10T18:55:18.305Z,22.70
2018-04-10T18:57:45.255Z,22.70
2018-04-10T19:00:12.366Z,22.70
2018-04-10T19:02:39.205Z,22.70
2018-04-10T19:05:06.108Z,22.70
2018-04-10T19:07:32.856Z,22.30
2018-04-10T19:09:59.908Z,22.70
2018-04-10T19:12:26.806Z,22.70
2018-04-10T19:14:53.709Z,22.70
2018-04-10T19:17:20.477Z,22.20
2018-04-10T19:19:47.407Z,22.60
2018-04-10T19:22:14.108Z,22.70
2018-04-10T19:24:40.915Z,22.70
2018-04-10T19:27:08.392Z,22.50
2018-04-10T19:29:36.024Z,22.20
2018-04-10T19:32:02.977Z,22.20
2018-04-10T19:34:30.022Z,22.10
2018-04-10T19:36:56.907Z,22.20
2018-04-10T19:39:24.404Z,22.10
2018-04-10T19:41:51.215Z,22.10
2018-04-10T19:44:18.690Z,22.10
2018-04-10T19:46:46.127Z,22.10
2018-04-10T19:49:12.960Z,22.10
2018-04-10T19:51:39.699Z,22.10
2018-04-10T19:54:06.515Z,22.20
2018-04-10T19:56:33.341Z,22.10
2018-04-10T19:59:01.076Z,22.00
2018-04-10T20:01:28.000Z,22.10
2018-04-10T20:03:54.879Z,22.20
2018-04-10T20:06:22.549Z,22.50
2018-04-10T20:08:50.369Z,22.00
2018-04-10T20:11:17.153Z,22.10
2018-04-10T20:13:44.309Z,22.20
2018-04-10T20:16:11.434Z,22.10
2018-04-10T20:18:38.861Z,22.20
2018-04-10T20:21:05.828Z,22.20
2018-04-10T20:23:32.831Z,22.10
2018-04-10T20:25:59.738Z,22.10
2018-04-10T20:28:27.235Z,22.10
2018-04-10T20:30:54.092Z,22.00
2018-04-10T20:33:21.264Z,22.00
2018-04-10T20:35:48.183Z,22.10
2018-04-10T20:38:15.156Z,22.10
2018-04-10T20:40:42.185Z,22.00
2018-04-10T20:43:08.954Z,22.20
2018-04-10T20:45:35.903Z,22.10
2018-04-10T20:48:02.899Z,22.10
2018-04-10T20:50:29.743Z,22.00
2018-04-10T20:52:56.503Z,22.10
2018-04-10T20:55:23.415Z,22.10
2018-04-10T20:57:50.984Z,22.00
2018-04-10T21:00:18.483Z,22.10
2018-04-10T21:02:45.236Z,22.00
2018-04-10T21:05:12.137Z,21.90
2018-04-10T21:07:39.865Z,22.10
2018-04-10T21:10:06.824Z,22.10
2018-04-10T21:12:33.669Z,22.00
2018-04-10T21:15:00.731Z,21.90
2018-04-10T21:17:27.738Z,22.10
2018-04-10T21:19:54.619Z,22.10
2018-04-10T21:22:21.571Z,22.10
2018-04-10T21:24:48.526Z,22.10
2018-04-10T21:27:15.368Z,22.00
2018-04-10T21:29:42.313Z,21.60
2018-04-10T21:32:09.114Z,22.10
2018-04-10T21:34:36.125Z,22.00
2018-04-10T21:37:03.057Z,22.00
2018-04-10T21:39:29.863Z,22.00
2018-04-10T21:41:57.310Z,22.10
2018-04-10T21:44:24.772Z,22.00
